createdAt,value
2023-03-10T00:00:06.359Z,1.08
2023-03-10T00:02:34.998Z,1.23
2023-03-10T00:05:02.959Z,1.10
2023-03-10T00:07:29.862Z,1.30
2023-03-10T00:09:56.737Z,1.40
2023-03-10T00:12:23.473Z,0.90
2023-03-10T00:14:50.413Z,1.10
2023-03-10T00:17:17.115Z,1.33
2023-03-10T00:19:43.768Z,1.63
2023-03-10T00:22:10.520Z,1.00
2023-03-10T00:24:37.312Z,1.00
2023-03-10T00:27:04.083Z,0.82
2023-03-10T00:29:31.117Z,1.20
2023-03-10T00:31:57.930Z,1.40
2023-03-10T00:34:24.665Z,1.35
2023-03-10T00:36:51.574Z,1.05
2023-03-10T00:39:18.477Z,0.80
2023-03-10T00:41:45.214Z,1.05
2023-03-10T00:44:12.238Z,0.70
2023-03-10T00:46:39.072Z,1.73
2023-03-10T00:49:09.217Z,1.23
2023-03-10T00:51:36.125Z,1.33
2023-03-10T00:54:03.638Z,0.70
2023-03-10T00:56:31.115Z,1.27
2023-03-10T00:59:00.445Z,0.95
2023-03-10T01:01:29.119Z,1.02
2023-03-10T01:03:58.117Z,1.05
2023-03-10T01:06:25.981Z,0.70
2023-03-10T01:08:53.380Z,0.80
2023-03-10T01:11:23.381Z,0.50
2023-03-10T01:13:51.023Z,0.80
2023-03-10T01:16:18.117Z,1.52
2023-03-10T01:18:45.097Z,0.65
2023-03-10T01:21:33.354Z,0.80
2023-03-10T01:24:01.268Z,1.17
2023-03-10T01:26:29.075Z,1.45
2023-03-10T01:28:56.001Z,0.98
2023-03-10T01:31:22.778Z,0.75
2023-03-10T01:33:49.565Z,0.90
2023-03-10T01:36:23.097Z,0.70
2023-03-10T01:38:50.057Z,0.70
2023-03-10T01:41:17.784Z,0.70
2023-03-10T01:43:55.823Z,0.32
2023-03-10T01:46:22.510Z,0.50
2023-03-10T01:48:49.549Z,0.68
2023-03-10T01:51:16.744Z,0.30
2023-03-10T01:53:43.558Z,0.47
2023-03-10T01:56:10.684Z,0.38
2023-03-10T01:58:41.225Z,0.65
2023-03-10T02:01:09.721Z,0.40
2023-03-10T02:04:09.216Z,0.50
2023-03-10T02:06:37.600Z,0.52
2023-03-10T02:09:05.182Z,0.77
2023-03-10T02:11:33.021Z,0.30
2023-03-10T02:14:04.288Z,0.40
2023-03-10T02:16:31.185Z,0.45
2023-03-10T02:18:58.878Z,0.30
2023-03-10T02:21:34.967Z,0.20
2023-03-10T02:24:26.347Z,0.32
2023-03-10T02:27:04.774Z,0.40
2023-03-10T02:29:58.079Z,0.95
2023-03-10T02:32:26.870Z,0.50
2023-03-10T02:34:53.765Z,0.40
2023-03-10T02:37:26.443Z,0.30
2023-03-10T02:39:53.180Z,0.60
2023-03-10T02:42:21.565Z,0.88
2023-03-10T02:44:49.239Z,0.30
2023-03-10T02:47:16.490Z,0.77
2023-03-10T02:49:44.079Z,0.30
2023-03-10T02:52:27.172Z,0.40
2023-03-10T02:54:54.108Z,0.60
2023-03-10T02:57:20.772Z,1.00
2023-03-10T02:59:47.565Z,0.63
2023-03-10T03:02:14.582Z,0.70
2023-03-10T03:04:41.270Z,1.00
2023-03-10T03:07:08.083Z,0.90
2023-03-10T03:09:35.486Z,0.80
2023-03-10T03:12:02.199Z,1.42
2023-03-10T03:14:28.986Z,0.85
2023-03-10T03:16:55.918Z,1.00
2023-03-10T03:19:22.589Z,0.80
2023-03-10T03:21:50.310Z,0.90
2023-03-10T03:24:18.999Z,1.17
2023-03-10T03:26:45.666Z,1.20
2023-03-10T03:30:12.223Z,0.77
2023-03-10T03:37:21.351Z,0.80
2023-03-10T03:40:47.882Z,1.30
2023-03-10T03:48:05.732Z,1.00
2023-03-10T03:51:32.168Z,0.90
2023-03-10T03:57:52.020Z,0.85
2023-03-10T04:00:21.572Z,1.05
2023-03-10T04:02:48.432Z,0.68
2023-03-10T04:05:15.896Z,1.10
2023-03-10T04:07:43.932Z,0.90
2023-03-10T04:10:13.709Z,0.90
2023-03-10T04:12:40.581Z,1.08
2023-03-10T04:15:08.543Z,1.00
2023-03-10T04:17:36.102Z,0.90
2023-03-10T04:20:07.392Z,1.30
2023-03-10T04:22:35.517Z,1.02
2023-03-10T04:25:02.650Z,1.00
2023-03-10T04:27:29.559Z,0.90
2023-03-10T04:29:57.282Z,0.80
2023-03-10T04:32:23.993Z,0.88
2023-03-10T04:34:50.929Z,0.82
2023-03-10T04:37:17.984Z,0.90
2023-03-10T04:39:44.647Z,0.80
2023-03-10T04:42:11.618Z,0.70
2023-03-10T04:44:38.406Z,0.77
2023-03-10T04:47:05.273Z,0.60
2023-03-10T04:49:33.547Z,0.82
2023-03-10T04:52:00.218Z,0.70
2023-03-10T04:54:26.881Z,0.65
2023-03-10T04:56:53.872Z,0.50
2023-03-10T04:59:21.640Z,0.50
2023-03-10T05:01:48.857Z,0.45
2023-03-10T05:04:15.806Z,0.60
2023-03-10T05:06:42.600Z,0.60
2023-03-10T05:09:09.357Z,0.40
2023-03-10T05:11:36.134Z,0.40
2023-03-10T05:14:03.570Z,0.52
2023-03-10T05:16:30.312Z,0.77
2023-03-10T05:18:57.125Z,0.50
2023-03-10T05:21:23.864Z,0.40
2023-03-10T05:23:50.530Z,1.30
2023-03-10T05:26:17.759Z,1.10
2023-03-10T05:28:44.592Z,0.40
2023-03-10T05:31:13.919Z,0.50
2023-03-10T05:33:41.280Z,0.93
2023-03-10T05:36:10.197Z,1.00
2023-03-10T05:38:37.414Z,0.90
2023-03-10T05:41:11.338Z,0.80
2023-03-10T05:43:39.168Z,0.75
2023-03-10T05:46:06.550Z,0.70
2023-03-10T05:48:33.612Z,0.50
2023-03-10T05:51:08.562Z,0.82
2023-03-10T05:53:36.242Z,0.63
2023-03-10T05:56:11.750Z,1.15
2023-03-10T05:58:38.977Z,0.68
2023-03-10T06:01:06.157Z,0.60
2023-03-10T06:03:33.674Z,1.00
2023-03-10T06:06:02.471Z,0.50
2023-03-10T06:08:29.901Z,0.98
2023-03-10T06:10:57.819Z,0.70
2023-03-10T06:13:25.293Z,0.55
2023-03-10T06:15:54.442Z,0.98
2023-03-10T06:18:21.927Z,1.20
2023-03-10T06:20:49.547Z,0.60
2023-03-10T06:23:17.511Z,0.90
2023-03-10T06:25:44.286Z,0.70
2023-03-10T06:28:11.945Z,0.50
2023-03-10T06:30:38.813Z,0.40
2023-03-10T06:33:05.498Z,0.98
2023-03-10T06:35:32.380Z,0.60
2023-03-10T06:37:59.142Z,0.40
2023-03-10T06:40:26.215Z,0.90
2023-03-10T06:42:52.993Z,0.50
2023-03-10T06:45:19.739Z,0.57
2023-03-10T06:47:46.427Z,0.32
2023-03-10T06:50:14.073Z,1.10
2023-03-10T06:52:42.661Z,0.50
2023-03-10T06:55:10.867Z,0.68
2023-03-10T06:57:38.110Z,0.90
2023-03-10T07:00:08.031Z,0.95
2023-03-10T07:02:34.775Z,0.77
2023-03-10T07:05:01.767Z,1.52
2023-03-10T07:07:28.550Z,0.80
2023-03-10T07:09:57.497Z,1.25
2023-03-10T07:12:25.017Z,1.10
2023-03-10T07:14:51.840Z,1.25
2023-03-10T07:17:18.655Z,1.23
2023-03-10T07:19:45.446Z,1.23
2023-03-10T07:22:12.278Z,1.75
2023-03-10T07:24:38.937Z,0.80
2023-03-10T07:27:05.990Z,1.15
2023-03-10T07:29:32.838Z,0.90
2023-03-10T07:31:59.402Z,1.73
2023-03-10T07:34:26.316Z,2.17
2023-03-10T07:36:53.029Z,1.90
2023-03-10T07:39:19.902Z,6.43
2023-03-10T07:41:46.681Z,1.77
2023-03-10T07:44:13.406Z,2.42
2023-03-10T07:46:40.100Z,1.02
2023-03-10T07:49:07.067Z,1.30
2023-03-10T07:51:34.272Z,1.35
2023-03-10T07:54:01.006Z,1.50
2023-03-10T07:56:27.774Z,1.45
2023-03-10T07:58:54.556Z,1.17
2023-03-10T08:01:22.397Z,1.73
2023-03-10T08:03:49.808Z,1.75
2023-03-10T08:06:25.166Z,2.30
2023-03-10T08:09:51.718Z,2.38
2023-03-10T08:12:19.636Z,1.45
2023-03-10T08:14:47.048Z,1.30
2023-03-10T08:17:14.739Z,1.65
2023-03-10T08:19:41.506Z,1.50
2023-03-10T08:22:09.647Z,1.85
2023-03-10T08:24:39.724Z,1.67
2023-03-10T08:27:06.503Z,1.70
2023-03-10T08:29:33.176Z,1.50
2023-03-10T08:31:59.946Z,1.55
2023-03-10T08:34:26.766Z,1.48
2023-03-10T08:36:53.510Z,1.67
2023-03-10T08:39:20.273Z,1.48
2023-03-10T08:41:49.473Z,1.30
2023-03-10T08:44:18.050Z,1.17
2023-03-10T08:46:50.192Z,1.15
2023-03-10T08:49:19.342Z,1.67
2023-03-10T08:51:46.274Z,1.08
2023-03-10T08:54:15.379Z,1.40
2023-03-10T08:56:42.542Z,1.48
2023-03-10T08:59:09.405Z,1.30
2023-03-10T09:01:37.523Z,1.88
2023-03-10T09:04:07.220Z,1.80
2023-03-10T09:06:34.649Z,1.75
2023-03-10T09:09:02.341Z,1.65
2023-03-10T09:11:33.894Z,1.48
2023-03-10T09:14:01.374Z,1.52
2023-03-10T09:16:29.375Z,1.80
2023-03-10T09:18:57.724Z,1.63
2023-03-10T09:21:25.241Z,1.65
2023-03-10T09:23:53.208Z,1.40
2023-03-10T09:26:20.991Z,1.67
2023-03-10T09:28:49.486Z,1.50
2023-03-10T09:31:56.187Z,1.40
2023-03-10T09:34:23.692Z,1.35
2023-03-10T09:36:50.341Z,1.17
2023-03-10T09:39:17.062Z,1.40
2023-03-10T09:42:01.752Z,1.40
2023-03-10T09:44:43.584Z,1.38
2023-03-10T09:47:10.884Z,1.25
2023-03-10T09:49:51.642Z,1.63
2023-03-10T09:52:22.574Z,1.50
2023-03-10T09:55:15.980Z,1.25
2023-03-10T09:57:43.185Z,1.50
2023-03-10T10:00:16.505Z,1.10
2023-03-10T10:02:47.561Z,1.97
2023-03-10T10:05:23.935Z,1.35
2023-03-10T10:07:56.142Z,1.38
2023-03-10T10:10:36.917Z,1.38
2023-03-10T10:13:13.498Z,1.57
2023-03-10T10:15:45.565Z,1.55
2023-03-10T10:18:20.728Z,1.50
2023-03-10T10:25:02.787Z,1.70
2023-03-10T10:27:32.049Z,1.40
2023-03-10T10:29:58.783Z,1.60
2023-03-10T10:32:25.623Z,1.20
2023-03-10T10:34:52.339Z,1.40
2023-03-10T10:37:28.388Z,1.20
2023-03-10T10:39:56.967Z,1.93
2023-03-10T10:42:30.875Z,1.50
2023-03-10T10:45:04.926Z,1.40
2023-03-10T10:47:46.739Z,1.53
2023-03-10T10:50:19.950Z,1.73
2023-03-10T10:52:50.607Z,1.30
2023-03-10T10:55:30.004Z,1.57
2023-03-10T10:58:01.662Z,1.70
2023-03-10T11:00:40.023Z,1.40
2023-03-10T11:03:48.138Z,1.60
2023-03-10T11:06:34.578Z,1.20
2023-03-10T11:09:21.951Z,1.50
2023-03-10T11:12:03.430Z,1.57
2023-03-10T11:14:34.914Z,1.30
2023-03-10T11:17:18.962Z,1.10
2023-03-10T11:20:20.767Z,1.20
2023-03-10T11:23:07.593Z,1.07
2023-03-10T11:26:02.679Z,1.30
2023-03-10T11:28:46.659Z,1.50
2023-03-10T11:31:31.300Z,1.50
2023-03-10T11:34:16.058Z,1.90
2023-03-10T11:37:09.049Z,1.10
2023-03-10T11:39:35.774Z,1.20
2023-03-10T11:42:11.360Z,1.00
2023-03-10T11:45:13.051Z,1.47
2023-03-10T11:47:51.978Z,1.03
2023-03-10T11:50:34.736Z,1.93
2023-03-10T11:53:05.827Z,0.93
2023-03-10T11:55:32.653Z,1.17
2023-03-10T11:58:03.497Z,1.20
2023-03-10T12:00:42.579Z,0.90
2023-03-10T12:03:18.052Z,1.10
2023-03-10T12:05:54.767Z,0.70
2023-03-10T12:08:24.290Z,1.20
2023-03-10T12:10:52.804Z,1.07
2023-03-10T12:13:45.094Z,1.03
2023-03-10T12:16:19.092Z,0.80
2023-03-10T12:18:46.375Z,1.07
2023-03-10T12:21:16.067Z,2.53
2023-03-10T12:23:48.460Z,1.00
2023-03-10T12:26:15.228Z,1.52
2023-03-10T12:28:42.018Z,1.73
2023-03-10T12:31:33.159Z,1.20
2023-03-10T12:34:18.998Z,1.63
2023-03-10T12:36:47.915Z,1.17
2023-03-10T12:39:38.687Z,1.40
2023-03-10T12:42:27.744Z,1.43
2023-03-10T12:45:29.369Z,1.27
2023-03-10T12:48:05.654Z,1.00
2023-03-10T12:50:44.084Z,1.17
2023-03-10T12:53:31.822Z,1.20
2023-03-10T12:56:20.938Z,1.40
2023-03-10T12:58:55.180Z,1.97
2023-03-10T13:01:25.525Z,1.27
2023-03-10T13:03:54.461Z,1.70
2023-03-10T13:06:33.777Z,0.87
2023-03-10T13:09:18.876Z,1.20
2023-03-10T13:11:52.651Z,1.33
2023-03-10T13:14:24.407Z,1.30
2023-03-10T13:17:02.731Z,1.30
2023-03-10T13:19:34.721Z,1.40
2023-03-10T13:22:02.662Z,2.47
2023-03-10T13:24:35.984Z,1.60
2023-03-10T13:27:18.937Z,1.47
2023-03-10T13:30:03.415Z,1.77
2023-03-10T13:32:31.997Z,1.70
2023-03-10T13:35:10.790Z,1.77
2023-03-10T13:37:37.623Z,1.73
2023-03-10T13:40:09.907Z,1.63
2023-03-10T13:42:43.881Z,2.38
2023-03-10T13:45:23.170Z,1.87
2023-03-10T13:47:50.855Z,2.10
2023-03-10T13:50:18.080Z,2.47
2023-03-10T13:52:57.881Z,2.50
2023-03-10T13:55:25.557Z,2.00
2023-03-10T13:58:52.196Z,2.20
2023-03-10T14:01:25.372Z,3.80
2023-03-10T14:04:02.474Z,2.10
2023-03-10T14:06:29.664Z,3.90
2023-03-10T14:09:56.156Z,2.23
2023-03-10T14:17:23.948Z,1.90
2023-03-10T14:20:50.640Z,9.27
2023-03-10T14:27:24.095Z,2.67
2023-03-10T14:30:50.736Z,5.75
2023-03-10T14:37:09.843Z,2.55
2023-03-10T14:39:36.718Z,2.80
2023-03-10T14:42:04.668Z,2.75
2023-03-10T14:44:31.971Z,3.15
2023-03-10T14:46:59.263Z,2.35
2023-03-10T14:49:27.516Z,2.40
2023-03-10T14:51:54.417Z,3.88
2023-03-10T14:54:24.231Z,3.33
2023-03-10T14:56:58.934Z,3.75
2023-03-10T14:59:30.304Z,4.18
2023-03-10T15:02:02.576Z,4.60
2023-03-10T15:06:56.224Z,3.65
2023-03-10T15:09:23.167Z,4.10
2023-03-10T15:11:49.953Z,4.50
2023-03-10T15:14:19.562Z,4.43
2023-03-10T15:16:46.420Z,5.05
2023-03-10T15:19:24.561Z,4.70
2023-03-10T15:21:52.157Z,6.55
2023-03-10T15:25:18.615Z,10.43
2023-03-10T15:28:45.278Z,13.55
2023-03-10T15:35:54.863Z,8.48
2023-03-10T15:39:30.945Z,9.93
2023-03-10T15:46:50.955Z,6.40
2023-03-10T15:50:17.418Z,9.70
2023-03-10T15:57:31.233Z,8.40
2023-03-10T16:00:57.783Z,8.15
2023-03-10T16:08:16.737Z,7.30
2023-03-10T16:11:46.297Z,2.33
2023-03-10T16:15:25.592Z,1.80
2023-03-10T16:18:52.240Z,3.07
2023-03-10T16:22:18.805Z,1.20
2023-03-10T16:25:45.400Z,0.50
2023-03-10T16:29:11.927Z,0.60
2023-03-10T16:38:14.117Z,4.87
2023-03-10T16:40:42.807Z,3.20
2023-03-10T16:44:09.396Z,1.27
2023-03-10T16:50:18.887Z,2.57
2023-03-10T16:52:45.628Z,7.40
2023-03-10T16:55:18.374Z,0.90
2023-03-10T17:00:15.750Z,2.63
2023-03-10T17:02:42.481Z,2.97
2023-03-10T17:05:10.443Z,6.60
2023-03-10T17:07:46.391Z,1.87
2023-03-10T17:12:47.065Z,0.73
2023-03-10T17:15:13.694Z,3.03
2023-03-10T17:17:40.573Z,1.93
2023-03-10T17:20:08.000Z,1.03
2023-03-10T17:22:35.371Z,0.60
2023-03-10T17:25:03.756Z,0.97
2023-03-10T17:27:30.469Z,0.60
2023-03-10T17:29:57.154Z,0.70
2023-03-10T17:32:24.126Z,0.60
2023-03-10T17:34:52.290Z,0.83
2023-03-10T17:37:19.364Z,0.93
2023-03-10T17:39:46.220Z,7.47
2023-03-10T17:42:13.030Z,2.33
2023-03-10T17:44:39.682Z,1.27
2023-03-10T17:47:06.537Z,1.50
2023-03-10T17:49:33.613Z,1.70
2023-03-10T17:52:00.481Z,13.97
2023-03-10T17:54:27.366Z,54.13
2023-03-10T17:56:54.169Z,10.00
2023-03-10T17:59:21.176Z,3.00
2023-03-10T18:01:49.385Z,5.53
2023-03-10T18:04:16.486Z,11.93
2023-03-10T18:06:43.222Z,25.07
2023-03-10T18:09:13.519Z,14.63
2023-03-10T18:11:40.567Z,3.20
2023-03-10T18:14:07.474Z,3.50
2023-03-10T18:16:38.124Z,5.83
2023-03-10T18:19:05.531Z,3.77
2023-03-10T18:21:32.425Z,1.87
2023-03-10T18:23:59.299Z,5.40
2023-03-10T18:26:29.667Z,10.40
2023-03-10T18:28:57.469Z,5.70
2023-03-10T18:31:42.145Z,2.10
2023-03-10T18:34:10.240Z,2.97
2023-03-10T18:36:36.955Z,2.30
2023-03-10T18:39:05.121Z,3.17
2023-03-10T18:41:32.868Z,7.03
2023-03-10T18:44:02.630Z,6.27
2023-03-10T18:46:29.476Z,6.27
2023-03-10T18:48:56.382Z,12.50
2023-03-10T18:51:27.464Z,7.90
2023-03-10T18:53:54.330Z,5.90
2023-03-10T18:56:21.413Z,5.00
2023-03-10T18:58:48.123Z,4.30
2023-03-10T19:01:15.876Z,6.37
2023-03-10T19:03:42.809Z,7.13
2023-03-10T19:06:09.929Z,10.97
2023-03-10T19:08:38.506Z,8.43
2023-03-10T19:11:06.847Z,5.73
2023-03-10T19:13:34.070Z,5.30
2023-03-10T19:16:05.931Z,10.27
2023-03-10T19:18:32.609Z,6.40
2023-03-10T19:21:00.200Z,11.77
2023-03-10T19:23:28.408Z,19.80
2023-03-10T19:25:55.882Z,17.10
2023-03-10T19:28:22.684Z,20.83
2023-03-10T19:30:49.641Z,14.53
2023-03-10T19:33:16.703Z,17.63
2023-03-10T19:35:43.350Z,18.87
2023-03-10T19:38:10.431Z,8.03
2023-03-10T19:40:38.544Z,7.90
2023-03-10T19:43:05.280Z,9.53
2023-03-10T19:45:32.175Z,8.40
2023-03-10T19:47:59.019Z,10.43
2023-03-10T19:50:26.478Z,10.03
2023-03-10T19:52:53.503Z,7.97
2023-03-10T19:55:25.247Z,8.77
2023-03-10T19:57:53.805Z,7.50
2023-03-10T20:00:25.583Z,12.37
2023-03-10T20:02:54.515Z,11.97
2023-03-10T20:05:22.104Z,9.37
2023-03-10T20:07:49.063Z,10.17
2023-03-10T20:10:17.553Z,8.43
2023-03-10T20:12:47.202Z,9.17
2023-03-10T20:15:14.528Z,23.93
2023-03-10T20:17:41.373Z,14.03
2023-03-10T20:20:12.418Z,11.80
2023-03-10T20:22:40.979Z,10.77
2023-03-10T20:25:09.715Z,14.13
2023-03-10T20:27:37.617Z,11.87
2023-03-10T20:30:07.014Z,8.20
2023-03-10T20:32:34.355Z,7.63
2023-03-10T20:35:03.354Z,7.30
2023-03-10T20:37:30.082Z,7.73
2023-03-10T20:39:56.899Z,8.17
2023-03-10T20:42:23.539Z,6.50
2023-03-10T20:44:50.245Z,6.10
2023-03-10T20:47:17.038Z,7.30
2023-03-10T20:49:45.700Z,7.70
2023-03-10T20:52:12.957Z,8.00
2023-03-10T20:54:39.941Z,9.00
2023-03-10T20:57:06.599Z,8.87
2023-03-10T20:59:33.368Z,11.77
2023-03-10T21:02:00.686Z,12.93
2023-03-10T21:04:28.097Z,16.23
2023-03-10T21:06:54.965Z,18.53
2023-03-10T21:09:21.863Z,23.03
2023-03-10T21:11:48.698Z,28.03
2023-03-10T21:14:17.044Z,35.33
2023-03-10T21:16:45.753Z,38.77
2023-03-10T21:19:12.559Z,38.63
2023-03-10T21:21:39.448Z,40.57
2023-03-10T21:24:06.927Z,39.50
2023-03-10T21:26:33.572Z,37.27
2023-03-10T21:29:00.615Z,34.83
2023-03-10T21:31:27.464Z,38.03
2023-03-10T21:33:54.221Z,41.30
2023-03-10T21:36:23.916Z,35.30
2023-03-10T21:38:51.816Z,34.23
2023-03-10T21:41:24.538Z,34.03
2023-03-10T21:43:53.941Z,30.70
2023-03-10T21:46:21.321Z,32.40
2023-03-10T21:48:48.561Z,28.53
2023-03-10T21:51:17.896Z,27.87
2023-03-10T21:53:45.383Z,33.40
2023-03-10T21:56:12.171Z,27.97
2023-03-10T21:58:39.079Z,26.93
2023-03-10T22:01:07.821Z,24.30
2023-03-10T22:03:35.346Z,20.87
2023-03-10T22:06:04.865Z,18.07
2023-03-10T22:08:37.334Z,19.07
2023-03-10T22:11:06.904Z,22.98
2023-03-10T22:13:35.488Z,19.47
2023-03-10T22:16:04.712Z,14.20
2023-03-10T22:18:31.736Z,13.83
2023-03-10T22:21:58.235Z,11.50
2023-03-10T22:29:08.815Z,15.25
2023-03-10T22:32:35.360Z,11.63
2023-03-10T22:39:54.437Z,10.50
2023-03-10T22:42:21.263Z,10.83
2023-03-10T22:45:47.868Z,10.90
2023-03-10T22:48:14.762Z,12.00
2023-03-10T22:50:44.380Z,16.53
2023-03-10T22:54:11.005Z,22.40
2023-03-10T22:56:37.797Z,23.50
2023-03-10T22:59:05.986Z,20.87
2023-03-10T23:01:32.957Z,23.73
2023-03-10T23:03:59.948Z,26.80
2023-03-10T23:06:29.208Z,26.03
2023-03-10T23:08:59.666Z,26.20
2023-03-10T23:11:26.502Z,26.73
2023-03-10T23:13:53.469Z,27.57
2023-03-10T23:16:57.417Z,31.30
2023-03-10T23:19:24.102Z,30.57
2023-03-10T23:21:50.780Z,30.30
2023-03-10T23:25:17.452Z,30.17
2023-03-10T23:31:26.225Z,31.27
2023-03-10T23:33:53.057Z,31.73
2023-03-10T23:36:19.786Z,31.07
2023-03-10T23:38:46.700Z,30.83
2023-03-10T23:41:13.630Z,29.87
2023-03-10T23:43:40.526Z,28.00
2023-03-10T23:46:08.684Z,30.90
2023-03-10T23:48:35.660Z,29.57
2023-03-10T23:51:03.054Z,31.00
2023-03-10T23:53:30.315Z,31.33
2023-03-10T23:55:58.886Z,30.60
2023-03-10T23:58:26.327Z,28.83
